createdAt,value
2023-05-05T00:01:14.694Z,5.90
2023-05-05T00:05:15.283Z,6.07
2023-05-05T00:09:15.769Z,5.80
2023-05-05T00:13:16.398Z,5.43
2023-05-05T00:17:19.434Z,5.97
2023-05-05T00:21:19.695Z,6.20
2023-05-05T00:25:20.383Z,6.13
2023-05-05T00:29:20.687Z,6.27
2023-05-05T00:33:23.882Z,6.40
2023-05-05T00:37:24.210Z,6.10
2023-05-05T00:41:24.711Z,5.70
2023-05-05T00:45:24.880Z,6.00
2023-05-05T00:49:27.806Z,5.47
2023-05-05T00:53:30.069Z,5.70
2023-05-05T00:57:30.338Z,5.53
2023-05-05T01:01:31.126Z,5.70
2023-05-05T01:05:45.314Z,5.23
2023-05-05T01:10:15.062Z,6.00
2023-05-05T01:14:27.116Z,5.90
2023-05-05T01:18:40.304Z,5.87
2023-05-05T01:22:49.509Z,5.90
2023-05-05T01:27:15.661Z,5.80
2023-05-05T01:31:42.592Z,5.70
2023-05-05T01:35:50.066Z,6.00
2023-05-05T01:39:58.595Z,6.13
2023-05-05T01:44:03.281Z,6.00
2023-05-05T01:48:11.338Z,6.57
2023-05-05T01:52:14.230Z,5.90
2023-05-05T01:56:17.328Z,6.17
2023-05-05T02:00:21.104Z,6.40
2023-05-05T02:04:25.309Z,5.30
2023-05-05T02:08:28.898Z,6.10
2023-05-05T02:12:31.107Z,6.03
2023-05-05T02:16:32.089Z,5.87
2023-05-05T02:20:36.393Z,6.10
2023-05-05T02:24:37.116Z,5.63
2023-05-05T02:28:45.181Z,5.57
2023-05-05T02:32:56.889Z,5.47
2023-05-05T02:37:09.768Z,5.63
2023-05-05T02:41:16.812Z,6.00
2023-05-05T02:45:23.326Z,5.60
2023-05-05T02:49:23.774Z,6.10
2023-05-05T02:53:32.101Z,5.60
2023-05-05T02:57:41.842Z,6.07
2023-05-05T03:01:58.545Z,6.03
2023-05-05T03:06:14.305Z,5.90
2023-05-05T03:10:30.774Z,5.90
2023-05-05T03:14:41.881Z,5.87
2023-05-05T03:18:47.427Z,6.53
2023-05-05T03:22:48.258Z,5.77
2023-05-05T03:26:53.663Z,6.33
2023-05-05T03:30:57.415Z,5.80
2023-05-05T03:34:58.586Z,5.63
2023-05-05T03:39:04.466Z,5.57
2023-05-05T03:43:09.706Z,5.67
2023-05-05T03:47:10.795Z,5.97
2023-05-05T03:51:12.937Z,5.70
2023-05-05T03:55:13.950Z,6.40
2023-05-05T03:59:17.697Z,6.63
2023-05-05T04:03:18.375Z,7.50
2023-05-05T04:07:19.243Z,7.90
2023-05-05T04:11:19.763Z,7.97
2023-05-05T04:15:22.990Z,7.47
2023-05-05T04:19:23.711Z,7.60
2023-05-05T04:23:24.171Z,7.97
2023-05-05T04:27:26.324Z,6.13
2023-05-05T04:31:30.863Z,8.30
2023-05-05T04:35:31.614Z,8.33
2023-05-05T04:39:32.055Z,8.30
2023-05-05T04:43:32.556Z,7.23
2023-05-05T04:47:40.026Z,7.37
2023-05-05T04:51:44.390Z,7.60
2023-05-05T04:55:44.762Z,7.60
2023-05-05T04:59:44.890Z,7.93
2023-05-05T05:03:48.916Z,9.20
2023-05-05T05:07:49.283Z,10.60
2023-05-05T05:11:49.534Z,8.53
2023-05-05T05:15:49.851Z,8.00
2023-05-05T05:19:52.882Z,7.47
2023-05-05T05:23:53.333Z,7.10
2023-05-05T05:28:08.429Z,7.20
2023-05-05T05:32:13.207Z,6.87
2023-05-05T05:36:16.755Z,6.70
2023-05-05T05:40:18.050Z,6.80
2023-05-05T05:44:19.085Z,7.07
2023-05-05T05:48:21.986Z,7.37
2023-05-05T05:52:24.828Z,6.70
2023-05-05T05:56:25.234Z,7.20
2023-05-05T06:00:26.511Z,7.33
2023-05-05T06:04:33.779Z,7.53
2023-05-05T06:08:36.722Z,7.83
2023-05-05T06:12:37.008Z,8.43
2023-05-05T06:16:37.277Z,8.57
2023-05-05T06:20:43.612Z,7.90
2023-05-05T06:24:48.643Z,7.87
2023-05-05T06:28:49.691Z,6.50
2023-05-05T06:32:50.293Z,7.03
2023-05-05T06:36:50.656Z,7.40
2023-05-05T06:40:53.869Z,6.87
2023-05-05T06:44:54.432Z,5.87
2023-05-05T06:48:54.626Z,6.10
2023-05-05T06:52:55.929Z,6.23
2023-05-05T06:56:59.790Z,5.60
2023-05-05T07:01:00.313Z,5.73
2023-05-05T07:05:00.597Z,6.00
2023-05-05T07:09:01.826Z,6.13
2023-05-05T07:13:04.804Z,5.88
2023-05-05T07:17:05.104Z,6.35
2023-05-05T07:21:06.682Z,6.35
2023-05-05T07:25:09.390Z,6.07
2023-05-05T07:29:12.376Z,6.30
2023-05-05T07:33:12.692Z,5.70
2023-05-05T07:37:12.934Z,5.20
2023-05-05T07:41:14.087Z,5.82
2023-05-05T07:45:17.096Z,5.70
2023-05-05T07:49:17.554Z,4.85
2023-05-05T07:53:18.075Z,5.63
2023-05-05T07:57:18.744Z,5.30
2023-05-05T08:01:22.190Z,5.72
2023-05-05T08:05:22.512Z,5.30
2023-05-05T08:09:22.725Z,4.93
2023-05-05T08:13:22.908Z,5.32
2023-05-05T08:17:27.336Z,5.15
2023-05-05T08:21:28.050Z,5.80
2023-05-05T08:25:28.342Z,5.25
2023-05-05T08:29:28.521Z,5.22
2023-05-05T08:33:31.381Z,5.85
2023-05-05T08:37:31.997Z,5.57
2023-05-05T08:41:32.520Z,4.82
2023-05-05T08:45:34.230Z,5.72
2023-05-05T08:49:47.639Z,6.20
2023-05-05T08:54:05.665Z,6.57
2023-05-05T08:58:06.365Z,6.53
2023-05-05T09:02:08.594Z,6.97
2023-05-05T09:06:12.482Z,7.30
2023-05-05T09:10:15.213Z,6.43
2023-05-05T09:14:16.069Z,6.30
2023-05-05T09:18:16.414Z,6.45
2023-05-05T09:22:19.966Z,8.13
2023-05-05T09:26:20.209Z,7.25
2023-05-05T09:30:27.124Z,7.32
2023-05-05T09:34:27.396Z,7.20
2023-05-05T09:38:30.200Z,6.50
2023-05-05T09:42:30.834Z,7.20
2023-05-05T09:46:31.249Z,6.97
2023-05-05T09:50:33.074Z,7.32
2023-05-05T09:54:36.190Z,7.20
2023-05-05T09:58:36.783Z,6.82
2023-05-05T10:02:42.176Z,6.93
2023-05-05T10:06:47.918Z,6.00
2023-05-05T10:10:55.737Z,6.97
2023-05-05T10:14:58.890Z,6.47
2023-05-05T10:19:01.554Z,5.68
2023-05-05T10:23:08.422Z,7.30
2023-05-05T10:27:20.281Z,5.75
2023-05-05T10:31:32.049Z,6.70
2023-05-05T10:35:35.909Z,7.60
2023-05-05T10:39:40.586Z,6.13
2023-05-05T10:43:44.038Z,8.10
2023-05-05T10:47:44.837Z,6.88
2023-05-05T10:52:04.607Z,6.47
2023-05-05T10:56:17.380Z,6.70
2023-05-05T11:00:54.828Z,5.88
2023-05-05T11:05:18.369Z,6.85
2023-05-05T11:09:39.251Z,7.53
2023-05-05T11:13:40.381Z,7.15
2023-05-05T11:17:52.588Z,6.57
2023-05-05T11:22:05.296Z,7.13
2023-05-05T11:26:05.526Z,5.22
2023-05-05T11:30:12.823Z,6.40
2023-05-05T11:34:32.505Z,6.38
2023-05-05T11:38:49.309Z,7.57
2023-05-05T11:42:49.649Z,8.32
2023-05-05T11:47:37.868Z,7.68
2023-05-05T11:51:41.065Z,7.20
2023-05-05T11:55:41.394Z,7.13
2023-05-05T11:59:57.650Z,5.78
2023-05-05T12:03:58.045Z,6.70
2023-05-05T12:08:04.476Z,7.15
2023-05-05T12:12:04.837Z,7.65
2023-05-05T12:16:13.100Z,5.90
2023-05-05T12:20:15.626Z,7.57
2023-05-05T12:24:19.158Z,7.30
2023-05-05T12:28:19.327Z,7.65
2023-05-05T12:32:24.500Z,6.50
2023-05-05T12:36:25.112Z,7.93
2023-05-05T12:40:53.079Z,6.90
2023-05-05T12:44:53.455Z,6.32
2023-05-05T12:49:05.460Z,7.90
2023-05-05T12:53:05.627Z,6.80
2023-05-05T12:57:16.700Z,7.05
2023-05-05T13:01:17.217Z,10.57
2023-05-05T13:05:17.321Z,8.27
2023-05-05T13:09:27.881Z,8.55
2023-05-05T13:13:36.349Z,7.82
2023-05-05T13:17:36.626Z,6.68
2023-05-05T13:21:37.172Z,6.45
2023-05-05T13:25:38.812Z,6.38
2023-05-05T13:29:41.861Z,5.55
2023-05-05T13:33:42.119Z,5.10
2023-05-05T13:37:42.848Z,5.30
2023-05-05T13:41:44.894Z,5.85
2023-05-05T13:45:47.801Z,5.43
2023-05-05T13:49:48.976Z,5.47
2023-05-05T13:53:49.903Z,6.22
2023-05-05T13:57:50.137Z,8.48
2023-05-05T14:01:52.925Z,10.35
2023-05-05T14:05:53.372Z,11.20
2023-05-05T14:14:19.889Z,11.00
2023-05-05T14:18:22.979Z,12.90
2023-05-05T14:22:23.207Z,12.57
2023-05-05T14:26:23.531Z,11.20
2023-05-05T14:30:23.721Z,9.10
2023-05-05T14:34:26.485Z,6.47
2023-05-05T14:38:26.708Z,4.72
2023-05-05T14:42:27.085Z,4.57
2023-05-05T14:46:27.617Z,4.80
2023-05-05T14:50:30.551Z,5.00
2023-05-05T14:54:30.840Z,5.88
2023-05-05T14:58:31.401Z,6.50
2023-05-05T15:02:31.896Z,9.60
2023-05-05T15:06:35.354Z,10.27
2023-05-05T15:10:35.592Z,10.95
2023-05-05T15:14:36.862Z,9.52
2023-05-05T15:18:37.710Z,10.40
2023-05-05T15:22:40.583Z,10.05
2023-05-05T15:26:40.772Z,8.07
2023-05-05T15:30:41.105Z,8.38
2023-05-05T15:34:41.676Z,6.68
2023-05-05T15:38:45.462Z,6.70
2023-05-05T15:42:46.095Z,5.80
2023-05-05T15:46:47.246Z,5.53
2023-05-05T15:50:49.466Z,4.80
2023-05-05T15:54:52.315Z,4.50
2023-05-05T15:58:52.972Z,4.53
2023-05-05T16:02:53.363Z,5.30
2023-05-05T16:06:53.717Z,4.40
2023-05-05T16:10:56.679Z,5.05
2023-05-05T16:14:57.407Z,4.43
2023-05-05T16:18:57.881Z,4.90
2023-05-05T16:22:58.553Z,5.20
2023-05-05T16:27:01.611Z,5.00
2023-05-05T16:31:02.331Z,4.93
2023-05-05T16:35:02.921Z,6.20
2023-05-05T16:39:03.802Z,6.35
2023-05-05T16:43:06.866Z,7.03
2023-05-05T16:47:07.471Z,7.00
2023-05-05T16:51:07.827Z,6.50
2023-05-05T16:55:09.156Z,6.32
2023-05-05T16:59:12.429Z,6.80
2023-05-05T17:03:12.697Z,7.70
2023-05-05T17:07:13.241Z,7.60
2023-05-05T17:11:13.846Z,8.27
2023-05-05T17:15:17.032Z,7.32
2023-05-05T17:19:17.728Z,7.05
2023-05-05T17:23:18.422Z,6.65
2023-05-05T17:27:19.023Z,7.03
2023-05-05T17:31:22.138Z,6.57
2023-05-05T17:35:22.885Z,6.15
2023-05-05T17:39:23.329Z,7.55
2023-05-05T17:43:23.946Z,5.78
2023-05-05T17:47:27.109Z,5.47
2023-05-05T17:51:27.585Z,4.70
2023-05-05T17:55:28.129Z,4.93
2023-05-05T17:59:28.861Z,4.88
2023-05-05T18:03:32.018Z,4.50
2023-05-05T18:07:33.799Z,4.20
2023-05-05T18:11:34.188Z,4.00
2023-05-05T18:15:34.654Z,4.60
2023-05-05T18:19:38.213Z,4.85
2023-05-05T18:23:38.673Z,5.28
2023-05-05T18:27:39.114Z,5.60
2023-05-05T18:31:39.539Z,5.82
2023-05-05T18:35:42.679Z,5.97
2023-05-05T18:39:44.118Z,5.07
2023-05-05T18:43:44.944Z,5.30
2023-05-05T18:47:45.409Z,5.38
2023-05-05T18:51:48.477Z,6.97
2023-05-05T18:55:49.705Z,9.30
2023-05-05T18:59:50.932Z,9.60
2023-05-05T19:03:51.667Z,10.70
2023-05-05T19:07:55.020Z,10.82
2023-05-05T19:11:55.460Z,11.18
2023-05-05T19:15:58.095Z,10.98
2023-05-05T19:19:58.797Z,12.60
2023-05-05T19:24:01.801Z,11.80
2023-05-05T19:28:02.723Z,10.57
2023-05-05T19:32:03.167Z,9.90
2023-05-05T19:36:05.032Z,8.00
2023-05-05T19:40:11.215Z,8.88
2023-05-05T19:44:11.630Z,6.68
2023-05-05T19:48:11.937Z,5.82
2023-05-05T19:52:12.200Z,5.57
2023-05-05T19:56:15.226Z,5.75
2023-05-05T20:00:17.908Z,6.10
2023-05-05T20:04:18.440Z,6.70
2023-05-05T20:08:18.751Z,6.30
2023-05-05T20:12:23.411Z,7.55
2023-05-05T20:16:24.429Z,7.13
2023-05-05T20:20:25.655Z,8.45
2023-05-05T20:24:26.221Z,7.70
2023-05-05T20:28:29.319Z,8.25
2023-05-05T20:32:29.546Z,8.88
2023-05-05T20:36:29.968Z,9.43
2023-05-05T20:40:30.744Z,8.18
2023-05-05T20:44:33.748Z,8.50
2023-05-05T20:48:35.358Z,7.78
2023-05-05T20:52:37.287Z,8.70
2023-05-05T20:56:37.705Z,8.20
2023-05-05T21:00:40.945Z,8.55
2023-05-05T21:04:41.934Z,8.77
2023-05-05T21:08:42.471Z,8.88
2023-05-05T21:12:43.879Z,8.80
2023-05-05T21:16:47.076Z,8.70
2023-05-05T21:20:47.539Z,8.80
2023-05-05T21:24:48.539Z,9.80
2023-05-05T21:28:50.621Z,8.75
2023-05-05T21:32:55.336Z,8.82
2023-05-05T21:36:57.481Z,7.90
2023-05-05T21:41:00.954Z,7.70
2023-05-05T21:45:01.253Z,8.03
2023-05-05T21:49:15.046Z,7.83
2023-05-05T21:53:15.417Z,7.87
2023-05-05T21:57:16.364Z,7.30
2023-05-05T22:01:16.693Z,7.55
2023-05-05T22:05:19.569Z,7.20
2023-05-05T22:09:20.050Z,7.15
2023-05-05T22:13:20.447Z,6.47
2023-05-05T22:17:20.912Z,6.40
2023-05-05T22:21:24.940Z,5.63
2023-05-05T22:25:25.911Z,5.10
2023-05-05T22:29:26.446Z,4.80
2023-05-05T22:33:27.424Z,4.40
2023-05-05T22:37:30.406Z,4.53
2023-05-05T22:41:30.976Z,4.10
2023-05-05T22:45:31.486Z,4.88
2023-05-05T22:49:31.993Z,5.90
2023-05-05T22:53:35.060Z,5.80
2023-05-05T22:57:37.505Z,5.60
2023-05-05T23:01:38.285Z,5.10
2023-05-05T23:05:38.920Z,5.35
2023-05-05T23:09:42.310Z,5.60
2023-05-05T23:13:42.741Z,5.73
2023-05-05T23:17:43.481Z,5.60
2023-05-05T23:21:52.660Z,5.30
2023-05-05T23:25:56.633Z,5.07
2023-05-05T23:29:57.009Z,5.27
2023-05-05T23:33:57.344Z,5.67
2023-05-05T23:37:57.845Z,5.67
2023-05-05T23:42:00.843Z,5.70
2023-05-05T23:46:01.420Z,5.77
2023-05-05T23:50:02.006Z,5.97
2023-05-05T23:54:02.342Z,5.37
2023-05-05T23:58:05.237Z,5.83
